createdAt,value
2017-07-10T00:00:17.313Z,83.75
2017-07-10T00:00:45.336Z,83.94
2017-07-10T00:01:13.479Z,83.18
2017-07-10T00:01:41.593Z,83.18
2017-07-10T00:02:09.715Z,83.18
2017-07-10T00:02:37.785Z,83.65
2017-07-10T00:03:05.888Z,83.27
2017-07-10T00:03:33.852Z,83.47
2017-07-10T00:04:01.758Z,83.27
2017-07-10T00:04:29.667Z,83.08
2017-07-10T00:04:57.697Z,83.56
2017-07-10T00:05:25.627Z,83.37
2017-07-10T00:05:53.748Z,83.37
2017-07-10T00:06:21.854Z,83.85
2017-07-10T00:06:49.553Z,83.75
2017-07-10T00:07:17.581Z,83.75
2017-07-10T00:07:45.691Z,84.23
2017-07-10T00:08:13.808Z,83.65
2017-07-10T00:08:41.990Z,83.65
2017-07-10T00:09:10.145Z,84.04
2017-07-10T00:09:38.185Z,84.23
2017-07-10T00:10:06.109Z,83.85
2017-07-10T00:10:34.229Z,83.75
2017-07-10T00:11:02.159Z,83.94
2017-07-10T00:11:30.068Z,83.94
2017-07-10T00:11:58.182Z,83.85
2017-07-10T00:12:26.220Z,84.61
2017-07-10T00:12:54.314Z,84.42
2017-07-10T00:13:22.397Z,84.33
2017-07-10T00:13:50.366Z,84.14
2017-07-10T00:14:18.621Z,84.52
2017-07-10T00:14:46.753Z,84.33
2017-07-10T00:15:14.679Z,84.33
2017-07-10T00:15:42.703Z,84.33
2017-07-10T00:16:10.828Z,84.52
2017-07-10T00:16:38.857Z,84.04
2017-07-10T00:17:07.322Z,84.33
2017-07-10T00:17:35.328Z,84.23
2017-07-10T00:18:03.457Z,84.52
2017-07-10T00:18:31.561Z,84.52
2017-07-10T00:18:59.702Z,85.19
2017-07-10T00:19:27.727Z,84.52
2017-07-10T00:19:55.742Z,84.52
2017-07-10T00:20:23.763Z,85.1
2017-07-10T00:20:51.866Z,84.91
2017-07-10T00:21:19.899Z,84.91
2017-07-10T00:21:48.020Z,84.91
2017-07-10T00:22:16.146Z,84.81
2017-07-10T00:22:44.172Z,85.19
2017-07-10T00:23:12.093Z,85.34
2017-07-10T00:23:40.131Z,85.34
2017-07-10T00:24:07.953Z,85.34
2017-07-10T00:24:36.083Z,85.63
2017-07-10T00:25:03.996Z,85.34
2017-07-10T00:25:32.119Z,85.34
2017-07-10T00:26:00.019Z,85.44
2017-07-10T00:26:28.011Z,85.15
2017-07-10T00:26:55.915Z,85.82
2017-07-10T00:27:23.936Z,85.82
2017-07-10T00:27:51.951Z,85.53
2017-07-10T00:28:20.053Z,85.72
2017-07-10T00:28:48.184Z,85.53
2017-07-10T00:29:16.260Z,85.82
2017-07-10T00:29:44.169Z,86.49
2017-07-10T00:30:12.285Z,86.01
2017-07-10T00:30:40.586Z,86.4
2017-07-10T00:31:08.472Z,86.49
2017-07-10T00:31:51.166Z,86.21
2017-07-10T00:32:19.594Z,86.49
2017-07-10T00:32:47.972Z,86.68
2017-07-10T00:33:16.264Z,86.68
2017-07-10T00:33:44.382Z,86.58
2017-07-10T00:34:12.368Z,87.16
2017-07-10T00:34:40.497Z,87.35
2017-07-10T00:35:08.529Z,87.16
2017-07-10T00:35:36.657Z,87.07
2017-07-10T00:36:04.718Z,87.07
2017-07-10T00:36:32.789Z,87.07
2017-07-10T00:37:00.923Z,87.64
2017-07-10T00:37:29.026Z,87.55
2017-07-10T00:37:56.924Z,87.35
2017-07-10T00:38:24.645Z,87.45
2017-07-10T00:38:52.549Z,87.31
2017-07-10T00:39:20.353Z,87.7
2017-07-10T00:39:48.344Z,87.93
2017-07-10T00:40:16.465Z,87.7
2017-07-10T00:40:44.516Z,87.31
2017-07-10T00:41:12.457Z,87.5
2017-07-10T00:41:40.477Z,87.88
2017-07-10T00:42:08.925Z,87.79
2017-07-10T00:42:37.055Z,87.5
2017-07-10T00:43:05.173Z,87.98
2017-07-10T00:43:33.017Z,87.98
2017-07-10T00:44:01.117Z,88.27
2017-07-10T00:44:29.462Z,87.98
2017-07-10T00:44:57.479Z,88.22
2017-07-10T00:45:25.503Z,87.7
2017-07-10T00:45:53.420Z,87.79
2017-07-10T00:46:21.530Z,88.17
2017-07-10T00:46:49.555Z,87.98
2017-07-10T00:47:17.492Z,87.98
2017-07-10T00:47:45.610Z,87.98
2017-07-10T00:48:13.694Z,88.37
2017-07-10T00:48:41.722Z,88.37
2017-07-10T00:49:10.037Z,88.27
2017-07-10T00:49:38.076Z,88.08
2017-07-10T00:50:06.158Z,88.65
2017-07-10T00:50:34.082Z,88.94
2017-07-10T00:51:02.213Z,88.17
2017-07-10T00:51:30.242Z,88.65
2017-07-10T00:51:58.360Z,88.84
2017-07-10T00:52:26.391Z,88.65
2017-07-10T00:52:54.501Z,88.56
2017-07-10T00:53:22.508Z,88.75
2017-07-10T00:53:50.621Z,88.56
2017-07-10T00:54:18.638Z,88.46
2017-07-10T00:54:46.662Z,88.37
2017-07-10T00:55:14.671Z,88.46
2017-07-10T00:55:42.512Z,88.84
2017-07-10T00:56:10.649Z,88.75
2017-07-10T00:56:38.756Z,88.75
2017-07-10T00:57:06.677Z,88.84
2017-07-10T00:57:34.797Z,89.42
2017-07-10T00:58:02.929Z,89.13
2017-07-10T00:58:30.865Z,89.32
2017-07-10T00:58:59.032Z,88.94
2017-07-10T00:59:27.197Z,89.04
2017-07-10T00:59:55.355Z,89.23
2017-07-10T01:00:23.359Z,89.04
2017-07-10T01:00:51.379Z,89.23
2017-07-10T01:01:19.488Z,89.13
2017-07-10T01:01:47.617Z,89.13
2017-07-10T01:02:15.632Z,89.13
2017-07-10T01:02:43.642Z,89.13
2017-07-10T01:03:11.764Z,89.13
2017-07-10T01:03:39.604Z,89.32
2017-07-10T01:04:07.631Z,89.04
2017-07-10T01:04:35.755Z,89.23
2017-07-10T01:05:03.886Z,88.94
2017-07-10T01:05:31.890Z,89.13
2017-07-10T01:06:00.011Z,88.94
2017-07-10T01:06:28.021Z,88.65
2017-07-10T01:06:55.927Z,89.42
2017-07-10T01:07:23.957Z,89.04
2017-07-10T01:07:51.852Z,89.04
2017-07-10T01:08:19.773Z,89.23
2017-07-10T01:08:47.774Z,89.42
2017-07-10T01:09:15.879Z,89.23
2017-07-10T01:09:43.770Z,88.94
2017-07-10T01:10:11.892Z,89.23
2017-07-10T01:10:39.994Z,89.23
2017-07-10T01:11:08.087Z,89.04
2017-07-10T01:11:36.203Z,89.04
2017-07-10T01:12:04.337Z,89.04
2017-07-10T01:12:32.464Z,89.04
2017-07-10T01:13:00.581Z,89.32
2017-07-10T01:13:28.685Z,89.32
2017-07-10T01:13:56.502Z,89.42
2017-07-10T01:14:24.542Z,89.9
2017-07-10T01:14:52.585Z,89.51
2017-07-10T01:15:20.730Z,89.51
2017-07-10T01:15:48.745Z,89.42
2017-07-10T01:16:16.873Z,89.23
2017-07-10T01:16:44.712Z,89.23
2017-07-10T01:17:12.736Z,89.61
2017-07-10T01:17:40.630Z,89.23
2017-07-10T01:18:08.554Z,89.9
2017-07-10T01:18:36.378Z,90.19
2017-07-10T01:19:04.383Z,90.19
2017-07-10T01:19:32.740Z,90.38
2017-07-10T01:20:00.848Z,90.28
2017-07-10T01:20:28.873Z,90.67
2017-07-10T01:20:57.000Z,90.67
2017-07-10T01:21:25.010Z,90.28
2017-07-10T01:21:53.022Z,90.38
2017-07-10T01:22:21.169Z,90.76
2017-07-10T01:22:49.129Z,90.86
2017-07-10T01:23:17.154Z,90.76
2017-07-10T01:23:45.185Z,90.95
2017-07-10T01:24:13.229Z,91.24
2017-07-10T01:24:41.251Z,91.05
2017-07-10T01:25:09.192Z,91.34
2017-07-10T01:25:37.302Z,91.24
2017-07-10T01:26:05.127Z,91.14
2017-07-10T01:26:32.939Z,91.05
2017-07-10T01:27:00.967Z,91.14
2017-07-10T01:27:29.093Z,91.24
2017-07-10T01:27:57.002Z,91.24
2017-07-10T01:28:25.130Z,90.86
2017-07-10T01:28:53.161Z,91.14
2017-07-10T01:29:20.983Z,91.14
2017-07-10T01:29:49.088Z,91.63
2017-07-10T01:30:16.992Z,91.72
2017-07-10T01:30:45.399Z,91.63
2017-07-10T01:31:13.512Z,91.63
2017-07-10T01:31:41.638Z,91.43
2017-07-10T01:32:09.748Z,91.63
2017-07-10T01:32:37.849Z,91.24
2017-07-10T01:33:05.966Z,91.14
2017-07-10T01:33:33.866Z,91.05
2017-07-10T01:34:01.569Z,91.24
2017-07-10T01:34:29.774Z,90.76
2017-07-10T01:34:57.907Z,91.24
2017-07-10T01:35:25.838Z,91.63
2017-07-10T01:35:53.853Z,91.34
2017-07-10T01:36:21.871Z,91.14
2017-07-10T01:36:49.906Z,91.14
2017-07-10T01:37:17.911Z,91.24
2017-07-10T01:37:45.922Z,91.14
2017-07-10T01:38:14.040Z,91.63
2017-07-10T01:38:42.163Z,91.34
2017-07-10T01:39:10.283Z,91.43
2017-07-10T01:39:38.408Z,91.05
2017-07-10T01:40:06.547Z,91.34
2017-07-10T01:40:34.701Z,91.91
2017-07-10T01:41:02.716Z,91.53
2017-07-10T01:41:30.753Z,91.34
2017-07-10T01:41:58.858Z,92.2
2017-07-10T01:42:26.876Z,92.06
2017-07-10T01:42:54.882Z,91.96
2017-07-10T01:43:22.673Z,92.06
2017-07-10T01:43:50.793Z,91.96
2017-07-10T01:44:19.108Z,91.77
2017-07-10T01:44:47.016Z,92.68
2017-07-10T01:45:14.949Z,92.44
2017-07-10T01:45:43.078Z,91.77
2017-07-10T01:46:11.132Z,92.77
2017-07-10T01:46:39.042Z,92.35
2017-07-10T01:47:06.970Z,92.25
2017-07-10T01:47:35.078Z,92.44
2017-07-10T01:48:02.979Z,92.35
2017-07-10T01:48:30.976Z,93.11
2017-07-10T01:48:59.091Z,92.82
2017-07-10T01:49:27.303Z,93.02
2017-07-10T01:49:55.341Z,93.02
2017-07-10T01:50:23.379Z,92.82
2017-07-10T01:50:51.302Z,93.4
2017-07-10T01:51:19.339Z,93.4
2017-07-10T01:51:47.474Z,93.4
2017-07-10T01:52:15.529Z,93.11
2017-07-10T01:52:43.634Z,93.21
2017-07-10T01:53:11.764Z,93.69
2017-07-10T01:53:39.896Z,93.02
2017-07-10T01:54:07.831Z,93.4
2017-07-10T01:54:35.955Z,93.59
2017-07-10T01:55:04.071Z,93.3
2017-07-10T01:55:32.202Z,94.26
2017-07-10T01:56:00.334Z,93.88
2017-07-10T01:56:28.367Z,93.78
2017-07-10T01:56:56.386Z,93.88
2017-07-10T01:57:24.490Z,93.88
2017-07-10T01:57:52.620Z,94.26
2017-07-10T01:58:20.702Z,93.98
2017-07-10T01:58:48.733Z,93.88
2017-07-10T01:59:16.733Z,93.69
2017-07-10T01:59:44.751Z,93.69
2017-07-10T02:00:12.655Z,93.88
2017-07-10T02:00:40.699Z,93.98
2017-07-10T02:01:08.698Z,93.88
2017-07-10T02:01:36.768Z,93.88
2017-07-10T02:02:04.886Z,94.17
2017-07-10T02:02:32.894Z,93.78
2017-07-10T02:03:00.895Z,93.98
2017-07-10T02:03:28.921Z,93.69
2017-07-10T02:03:57.062Z,94.17
2017-07-10T02:04:25.098Z,93.88
2017-07-10T02:04:53.263Z,93.69
2017-07-10T02:05:21.377Z,93.98
2017-07-10T02:05:49.381Z,93.88
2017-07-10T02:06:17.286Z,93.69
2017-07-10T02:06:45.402Z,93.69
2017-07-10T02:07:13.393Z,93.88
2017-07-10T02:07:41.448Z,93.88
2017-07-10T02:08:09.459Z,94.74
2017-07-10T02:08:37.470Z,94.35
2017-07-10T02:09:05.595Z,94.35
2017-07-10T02:09:33.709Z,94.84
2017-07-10T02:10:01.839Z,93.98
2017-07-10T02:10:29.727Z,93.98
2017-07-10T02:10:57.846Z,94.64
2017-07-10T02:11:25.871Z,94.55
2017-07-10T02:11:53.875Z,94.45
2017-07-10T02:12:21.805Z,94.64
2017-07-10T02:12:49.821Z,94.64
2017-07-10T02:13:17.737Z,94.55
2017-07-10T02:13:45.880Z,94.64
2017-07-10T02:14:14.100Z,94.45
2017-07-10T02:14:42.212Z,94.35
2017-07-10T02:15:10.357Z,94.84
2017-07-10T02:15:38.278Z,94.64
2017-07-10T02:16:06.386Z,94.84
2017-07-10T02:16:34.523Z,94.89
2017-07-10T02:17:02.562Z,94.93
2017-07-10T02:17:30.599Z,95.17
2017-07-10T02:17:58.730Z,95.03
2017-07-10T02:18:26.734Z,95.56
2017-07-10T02:18:54.859Z,95.51
2017-07-10T02:19:22.814Z,95.46
2017-07-10T02:19:51.167Z,95.27
2017-07-10T02:20:19.312Z,95.98
2017-07-10T02:20:47.443Z,95.79
2017-07-10T02:21:15.463Z,95.65
2017-07-10T02:21:43.579Z,96.32
2017-07-10T02:22:11.491Z,96.32
2017-07-10T02:22:39.335Z,96.13
2017-07-10T02:23:07.327Z,96.51
2017-07-10T02:23:35.377Z,96.42
2017-07-10T02:24:03.208Z,96.8
2017-07-10T02:24:31.296Z,96.32
2017-07-10T02:24:59.419Z,96.51
2017-07-10T02:25:27.454Z,96.42
2017-07-10T02:25:55.556Z,96.13
2017-07-10T02:26:23.651Z,96.32
2017-07-10T02:26:51.752Z,96.32
2017-07-10T02:27:19.761Z,96.61
2017-07-10T02:27:47.867Z,96.61
2017-07-10T02:28:15.814Z,96.8
2017-07-10T02:28:43.698Z,96.89
2017-07-10T02:29:11.828Z,96.42
2017-07-10T02:29:39.824Z,96.89
2017-07-10T02:30:07.747Z,97.09
2017-07-10T02:30:35.756Z,96.89
2017-07-10T02:31:03.871Z,96.61
2017-07-10T02:31:31.671Z,96.89
2017-07-10T02:31:59.722Z,96.8
2017-07-10T02:32:27.554Z,96.61
2017-07-10T02:32:55.585Z,96.99
2017-07-10T02:33:23.574Z,96.89
2017-07-10T02:33:51.393Z,96.89
2017-07-10T02:34:19.313Z,97.47
2017-07-10T02:34:47.446Z,97.38
2017-07-10T02:35:15.603Z,96.99
2017-07-10T02:35:43.745Z,97.09
2017-07-10T02:36:11.773Z,97.09
2017-07-10T02:36:39.873Z,97.09
2017-07-10T02:37:07.905Z,96.99
2017-07-10T02:37:36.024Z,97.18
2017-07-10T02:38:04.053Z,96.99
2017-07-10T02:38:31.972Z,96.61
2017-07-10T02:38:59.784Z,96.89
2017-07-10T02:39:27.910Z,97.18
2017-07-10T02:39:55.890Z,97.38
2017-07-10T02:40:23.623Z,97.38
2017-07-10T02:40:51.729Z,97.38
2017-07-10T02:41:19.734Z,97.28
2017-07-10T02:41:47.643Z,97.56
2017-07-10T02:42:15.470Z,97.28
2017-07-10T02:42:43.493Z,97.75
2017-07-10T02:43:11.630Z,97.18
2017-07-10T02:43:39.550Z,98.05
2017-07-10T02:44:07.273Z,97.85
2017-07-10T02:44:35.322Z,97.85
2017-07-10T02:45:03.245Z,97.56
2017-07-10T02:45:31.160Z,97.85
2017-07-10T02:45:59.283Z,97.66
2017-07-10T02:46:27.324Z,98.24
2017-07-10T02:46:55.241Z,98.14
2017-07-10T02:47:23.277Z,98.62
2017-07-10T02:47:51.389Z,98.43
2017-07-10T02:48:19.436Z,98.43
2017-07-10T02:48:47.376Z,98.52
2017-07-10T02:49:15.209Z,98.43
2017-07-10T02:49:43.259Z,98.24
2017-07-10T02:50:11.376Z,98.62
2017-07-10T02:50:39.391Z,98.62
2017-07-10T02:51:07.414Z,98.71
2017-07-10T02:51:35.417Z,98.62
2017-07-10T02:52:03.439Z,98.91
2017-07-10T02:52:31.335Z,99.19
2017-07-10T02:52:59.482Z,99.19
2017-07-10T02:53:27.381Z,99
2017-07-10T02:53:55.515Z,99
2017-07-10T02:54:23.340Z,99.19
2017-07-10T02:54:51.478Z,99
2017-07-10T02:55:19.582Z,99
2017-07-10T02:55:47.630Z,99.19
2017-07-10T02:56:15.646Z,98.91
2017-07-10T02:56:43.778Z,99.19
2017-07-10T02:57:11.616Z,99.1
2017-07-10T02:57:39.628Z,99.19
2017-07-10T02:58:07.771Z,99
2017-07-10T02:58:35.896Z,98.33
2017-07-10T02:59:04.014Z,98.33
2017-07-10T02:59:32.068Z,98.81
2017-07-10T03:00:00.169Z,98.81
2017-07-10T03:00:28.273Z,98.62
2017-07-10T03:00:56.402Z,98.62
2017-07-10T03:01:24.327Z,98.91
2017-07-10T03:01:52.453Z,98.91
2017-07-10T03:02:20.364Z,98.71
2017-07-10T03:02:48.484Z,98.43
2017-07-10T03:03:16.607Z,99.29
2017-07-10T03:03:44.626Z,99
2017-07-10T03:04:12.765Z,99.1
2017-07-10T03:04:40.897Z,99
2017-07-10T03:05:08.925Z,99.1
2017-07-10T03:05:37.036Z,99.29
2017-07-10T03:06:05.152Z,99.29
2017-07-10T03:06:33.187Z,99
2017-07-10T03:07:01.300Z,99
2017-07-10T03:07:29.287Z,99.48
2017-07-10T03:07:57.412Z,99
2017-07-10T03:08:25.432Z,99
2017-07-10T03:08:53.555Z,99
2017-07-10T03:09:21.674Z,99.96
2017-07-10T03:09:49.502Z,99.99
2017-07-10T03:10:17.410Z,99.87
2017-07-10T03:10:45.434Z,99.99
2017-07-10T03:11:13.567Z,99.99
2017-07-10T03:11:41.591Z,99.77
2017-07-10T03:12:09.506Z,99.99
2017-07-10T03:12:37.400Z,99.96
2017-07-10T03:13:05.522Z,99.87
2017-07-10T03:13:33.635Z,99.96
2017-07-10T03:14:01.646Z,99.77
2017-07-10T03:14:29.648Z,99.87
2017-07-10T03:14:57.688Z,99.99
2017-07-10T03:15:25.875Z,99.67
2017-07-10T03:15:53.869Z,99.99
2017-07-10T03:16:21.803Z,99.96
2017-07-10T03:16:49.948Z,99.99
2017-07-10T03:17:17.878Z,99.99
2017-07-10T03:17:45.907Z,99.99
2017-07-10T03:18:13.848Z,99.99
2017-07-10T03:18:41.861Z,99.96
2017-07-10T03:19:09.979Z,99.87
2017-07-10T03:19:38.099Z,99.99
2017-07-10T03:20:06.378Z,99.99
2017-07-10T03:20:34.395Z,99.99
2017-07-10T03:21:02.501Z,99.99
2017-07-10T03:21:30.643Z,99.99
2017-07-10T03:21:58.658Z,99.99
2017-07-10T03:22:26.460Z,99.99
2017-07-10T03:22:54.409Z,99.99
2017-07-10T03:23:22.118Z,99.99
2017-07-10T03:23:50.127Z,99.87
2017-07-10T03:24:18.166Z,99.96
2017-07-10T03:24:46.200Z,99.99
2017-07-10T03:25:14.314Z,99.99
2017-07-10T03:25:42.343Z,99.99
2017-07-10T03:26:10.360Z,99.99
2017-07-10T03:26:38.286Z,99.99
2017-07-10T03:27:06.308Z,99.99
2017-07-10T03:27:34.308Z,99.99
2017-07-10T03:28:02.445Z,99.99
2017-07-10T03:28:30.405Z,99.99
2017-07-10T03:28:58.527Z,99.99
2017-07-10T03:29:26.644Z,99.99
2017-07-10T03:29:54.655Z,99.99
2017-07-10T03:30:22.567Z,99.99
2017-07-10T03:30:50.469Z,99.99
2017-07-10T03:31:18.502Z,99.99
2017-07-10T03:31:46.630Z,99.99
2017-07-10T03:32:14.758Z,99.99
2017-07-10T03:32:42.591Z,99.99
2017-07-10T03:33:10.702Z,99.99
2017-07-10T03:33:38.722Z,99.99
2017-07-10T03:34:06.753Z,99.99
2017-07-10T03:34:34.900Z,99.99
2017-07-10T03:35:02.811Z,99.99
2017-07-10T03:35:30.826Z,99.99
2017-07-10T03:35:58.866Z,99.99
2017-07-10T03:36:26.891Z,99.99
2017-07-10T03:36:54.707Z,99.99
2017-07-10T03:37:22.630Z,99.99
2017-07-10T03:37:50.646Z,99.99
2017-07-10T03:38:18.664Z,99.99
2017-07-10T03:38:46.666Z,99.99
2017-07-10T03:39:14.688Z,99.99
2017-07-10T03:39:42.720Z,99.99
2017-07-10T03:40:10.725Z,99.99
2017-07-10T03:40:38.721Z,99.99
2017-07-10T03:41:06.832Z,99.99
2017-07-10T03:41:34.850Z,99.99
2017-07-10T03:42:02.980Z,99.99
2017-07-10T03:42:31.005Z,99.99
2017-07-10T03:42:59.139Z,99.99
2017-07-10T03:43:27.171Z,99.99
2017-07-10T03:43:55.279Z,99.99
2017-07-10T03:44:23.284Z,99.99
2017-07-10T03:44:51.288Z,99.99
2017-07-10T03:45:19.417Z,99.99
2017-07-10T03:45:47.504Z,99.99
2017-07-10T03:46:15.630Z,99.99
2017-07-10T03:46:43.661Z,99.99
2017-07-10T03:47:11.781Z,99.99
2017-07-10T03:47:39.888Z,99.99
2017-07-10T03:48:07.797Z,99.99
2017-07-10T03:48:35.921Z,99.99
2017-07-10T03:49:03.955Z,99.99
2017-07-10T03:49:32.067Z,99.99
2017-07-10T03:50:00.054Z,99.99
2017-07-10T03:50:28.351Z,99.99
2017-07-10T03:50:56.362Z,99.99
2017-07-10T03:51:24.366Z,99.99
2017-07-10T03:51:52.406Z,99.99
2017-07-10T03:52:20.329Z,99.99
2017-07-10T03:52:48.367Z,99.99
2017-07-10T03:53:16.543Z,99.99
2017-07-10T03:53:44.458Z,99.99
2017-07-10T03:54:12.605Z,99.99
2017-07-10T03:54:40.625Z,99.99
2017-07-10T03:55:08.737Z,99.99
2017-07-10T03:55:36.951Z,99.99
2017-07-10T03:56:05.061Z,99.99
2017-07-10T03:56:32.873Z,99.99
2017-07-10T03:57:00.889Z,99.99
2017-07-10T03:57:29.023Z,99.99
2017-07-10T03:57:57.053Z,99.99
2017-07-10T03:58:24.960Z,99.99
2017-07-10T03:58:52.775Z,99.99
2017-07-10T03:59:20.889Z,99.99
2017-07-10T03:59:49.016Z,99.99
2017-07-10T04:00:17.128Z,99.99
2017-07-10T04:00:45.170Z,99.99
2017-07-10T04:01:13.308Z,99.99
2017-07-10T04:01:41.311Z,99.99
2017-07-10T04:02:09.330Z,99.99
2017-07-10T04:02:37.068Z,99.99
2017-07-10T04:03:05.202Z,99.99
2017-07-10T04:03:33.106Z,99.99
2017-07-10T04:04:01.018Z,99.99
2017-07-10T04:04:29.029Z,99.99
2017-07-10T04:04:57.036Z,99.99
2017-07-10T04:05:25.168Z,99.99
2017-07-10T04:05:53.200Z,99.99
2017-07-10T04:06:21.326Z,99.99
2017-07-10T04:06:49.329Z,99.99
2017-07-10T04:07:17.360Z,99.99
2017-07-10T04:07:45.361Z,99.99
2017-07-10T04:08:13.374Z,99.99
2017-07-10T04:08:41.372Z,99.99
2017-07-10T04:09:09.406Z,99.99
2017-07-10T04:09:37.535Z,99.99
2017-07-10T04:10:05.682Z,99.99
2017-07-10T04:10:33.688Z,99.99
2017-07-10T04:11:01.510Z,99.99
2017-07-10T04:11:29.531Z,99.99
2017-07-10T04:11:57.553Z,99.99
2017-07-10T04:12:25.667Z,99.99
2017-07-10T04:12:53.683Z,99.99
2017-07-10T04:13:21.611Z,99.99
2017-07-10T04:13:49.613Z,99.99
2017-07-10T04:14:17.515Z,99.99
2017-07-10T04:14:45.622Z,99.99
2017-07-10T04:15:13.440Z,99.99
2017-07-10T04:15:41.773Z,99.99
2017-07-10T04:16:09.893Z,99.99
2017-07-10T04:16:37.916Z,99.99
2017-07-10T04:17:05.924Z,99.99
2017-07-10T04:17:34.021Z,99.99
2017-07-10T04:18:02.057Z,99.99
2017-07-10T04:18:30.084Z,99.99
2017-07-10T04:18:58.016Z,99.99
2017-07-10T04:19:25.945Z,99.99
2017-07-10T04:19:54.060Z,99.99
2017-07-10T04:20:22.215Z,99.99
2017-07-10T04:20:50.221Z,99.99
2017-07-10T04:21:18.332Z,99.99
2017-07-10T04:21:46.154Z,99.99
2017-07-10T04:22:14.044Z,99.99
2017-07-10T04:22:42.002Z,99.99
2017-07-10T04:23:10.126Z,99.99
2017-07-10T04:23:38.053Z,99.99
2017-07-10T04:24:05.955Z,99.99
2017-07-10T04:24:34.104Z,99.99
2017-07-10T04:25:02.062Z,99.99
2017-07-10T04:25:30.076Z,99.99
2017-07-10T04:25:58.019Z,99.99
2017-07-10T04:26:26.155Z,99.99
2017-07-10T04:26:54.176Z,99.99
2017-07-10T04:27:22.194Z,99.99
2017-07-10T04:27:50.196Z,99.99
2017-07-10T04:28:18.335Z,99.99
2017-07-10T04:28:46.181Z,99.99
2017-07-10T04:29:14.314Z,99.99
2017-07-10T04:29:42.433Z,99.99
2017-07-10T04:30:10.465Z,99.99
2017-07-10T04:30:38.571Z,99.99
2017-07-10T04:31:06.607Z,99.99
2017-07-10T04:31:34.644Z,99.99
2017-07-10T04:32:02.685Z,99.99
2017-07-10T04:32:30.607Z,99.99
2017-07-10T04:32:58.644Z,99.99
2017-07-10T04:33:26.683Z,99.99
2017-07-10T04:33:54.691Z,99.99
2017-07-10T04:34:22.788Z,99.99
2017-07-10T04:34:50.803Z,99.99
2017-07-10T04:35:18.830Z,99.99
2017-07-10T04:35:46.868Z,99.99
2017-07-10T04:36:14.853Z,99.99
2017-07-10T04:36:42.988Z,99.99
2017-07-10T04:37:11.135Z,99.99
2017-07-10T04:37:39.153Z,99.99
2017-07-10T04:38:07.271Z,99.99
2017-07-10T04:38:35.210Z,99.99
2017-07-10T04:39:03.238Z,99.99
2017-07-10T04:39:31.386Z,99.99
2017-07-10T04:39:59.518Z,99.99
2017-07-10T04:40:27.656Z,99.99
2017-07-10T04:40:55.682Z,99.99
2017-07-10T04:41:23.813Z,99.99
2017-07-10T04:41:51.828Z,99.99
2017-07-10T04:42:20.003Z,99.99
2017-07-10T04:42:48.151Z,99.99
2017-07-10T04:43:15.940Z,99.99
2017-07-10T04:43:43.951Z,99.99
2017-07-10T04:44:11.878Z,99.99
2017-07-10T04:44:40.022Z,99.99
2017-07-10T04:45:08.149Z,99.99
2017-07-10T04:45:36.157Z,99.99
2017-07-10T04:46:04.222Z,99.99
2017-07-10T04:46:32.228Z,99.99
2017-07-10T04:47:00.244Z,99.99
2017-07-10T04:47:28.242Z,99.99
2017-07-10T04:47:56.261Z,99.99
2017-07-10T04:48:24.289Z,99.99
2017-07-10T04:48:52.331Z,99.99
2017-07-10T04:49:20.367Z,99.99
2017-07-10T04:49:48.373Z,99.99
2017-07-10T04:50:16.304Z,99.99
2017-07-10T04:50:44.439Z,99.99
2017-07-10T04:51:12.541Z,99.99
2017-07-10T04:51:40.652Z,99.99
2017-07-10T04:52:08.787Z,99.99
2017-07-10T04:52:36.715Z,99.99
2017-07-10T04:53:04.854Z,99.99
2017-07-10T04:53:32.974Z,99.99
2017-07-10T04:54:01.102Z,99.99
2017-07-10T04:54:29.013Z,99.99
2017-07-10T04:54:57.148Z,99.99
2017-07-10T04:55:25.070Z,99.99
2017-07-10T04:55:53.085Z,99.99
2017-07-10T04:56:21.121Z,99.99
2017-07-10T04:56:49.249Z,99.99
2017-07-10T04:57:17.261Z,99.99
2017-07-10T04:57:45.070Z,99.99
2017-07-10T04:58:12.985Z,99.99
2017-07-10T04:58:41.100Z,99.99
2017-07-10T04:59:09.014Z,99.99
2017-07-10T04:59:37.132Z,99.99
2017-07-10T05:00:05.131Z,99.99
2017-07-10T05:00:33.240Z,99.99
2017-07-10T05:01:01.470Z,99.99
2017-07-10T05:01:29.516Z,99.99
2017-07-10T05:01:57.505Z,99.99
2017-07-10T05:02:25.592Z,99.99
2017-07-10T05:02:53.591Z,99.99
2017-07-10T05:03:21.611Z,99.99
2017-07-10T05:03:49.767Z,99.99
2017-07-10T05:04:17.881Z,99.99
2017-07-10T05:04:45.973Z,99.99
2017-07-10T05:05:13.785Z,99.99
2017-07-10T05:05:41.920Z,99.99
2017-07-10T05:06:10.043Z,99.99
2017-07-10T05:06:38.057Z,99.99
2017-07-10T05:07:05.895Z,99.99
2017-07-10T05:07:33.928Z,99.99
2017-07-10T05:08:02.053Z,99.99
2017-07-10T05:08:30.206Z,99.99
2017-07-10T05:08:58.238Z,99.99
2017-07-10T05:09:26.347Z,99.99
2017-07-10T05:09:54.258Z,99.99
2017-07-10T05:10:22.275Z,99.99
2017-07-10T05:10:50.267Z,99.99
2017-07-10T05:11:18.296Z,99.99
2017-07-10T05:11:46.353Z,99.99
2017-07-10T05:12:14.475Z,99.99
2017-07-10T05:12:42.356Z,99.99
2017-07-10T05:13:10.463Z,99.99
2017-07-10T05:13:38.578Z,99.99
2017-07-10T05:14:06.593Z,99.99
2017-07-10T05:14:34.707Z,99.99
2017-07-10T05:15:02.738Z,99.99
2017-07-10T05:15:30.762Z,99.99
2017-07-10T05:15:58.802Z,99.99
2017-07-10T05:16:26.933Z,99.99
2017-07-10T05:16:54.984Z,99.99
2017-07-10T05:17:23.005Z,99.99
2017-07-10T05:17:51.118Z,99.99
2017-07-10T05:18:19.045Z,99.99
2017-07-10T05:18:47.169Z,99.99
2017-07-10T05:19:15.190Z,99.99
2017-07-10T05:19:43.297Z,99.99
2017-07-10T05:20:11.301Z,99.99
2017-07-10T05:20:39.208Z,99.99
2017-07-10T05:21:07.445Z,99.99
2017-07-10T05:21:35.579Z,99.99
2017-07-10T05:22:03.478Z,99.99
2017-07-10T05:22:31.607Z,99.99
2017-07-10T05:22:59.529Z,99.99
2017-07-10T05:23:27.168Z,99.99
2017-07-10T05:23:55.178Z,99.99
2017-07-10T05:24:23.111Z,99.99
2017-07-10T05:24:51.029Z,99.99
2017-07-10T05:25:19.043Z,99.99
2017-07-10T05:25:47.070Z,99.99
2017-07-10T05:26:15.272Z,99.99
2017-07-10T05:26:43.407Z,99.99
2017-07-10T05:27:11.438Z,99.99
2017-07-10T05:27:39.443Z,99.99
2017-07-10T05:28:07.471Z,99.99
2017-07-10T05:28:35.601Z,99.99
2017-07-10T05:29:03.740Z,99.99
2017-07-10T05:29:31.682Z,99.99
2017-07-10T05:29:59.801Z,99.99
2017-07-10T05:30:27.917Z,99.99
2017-07-10T05:30:56.042Z,99.99
2017-07-10T05:31:24.075Z,99.99
2017-07-10T05:31:52.127Z,99.99
2017-07-10T05:32:20.288Z,99.99
2017-07-10T05:32:48.289Z,99.99
2017-07-10T05:33:16.335Z,99.99
2017-07-10T05:33:44.483Z,99.99
2017-07-10T05:34:12.611Z,99.99
2017-07-10T05:34:40.643Z,99.99
2017-07-10T05:35:08.462Z,99.99
2017-07-10T05:35:36.496Z,99.99
2017-07-10T05:36:04.530Z,99.99
2017-07-10T05:36:32.565Z,99.99
2017-07-10T05:37:00.680Z,99.99
2017-07-10T05:37:28.403Z,99.99
2017-07-10T05:37:56.419Z,99.99
2017-07-10T05:38:24.523Z,99.99
2017-07-10T05:38:52.439Z,99.99
2017-07-10T05:39:20.484Z,99.99
2017-07-10T05:39:48.629Z,99.99
2017-07-10T05:40:16.545Z,99.99
2017-07-10T05:40:44.544Z,99.99
2017-07-10T05:41:12.672Z,99.99
2017-07-10T05:41:40.480Z,99.99
2017-07-10T05:42:08.581Z,99.99
2017-07-10T05:42:36.682Z,99.99
2017-07-10T05:43:04.701Z,99.99
2017-07-10T05:43:32.812Z,99.99
2017-07-10T05:44:00.835Z,99.99
2017-07-10T05:44:28.779Z,99.99
2017-07-10T05:44:56.933Z,99.99
2017-07-10T05:45:24.919Z,99.99
2017-07-10T05:45:52.832Z,99.99
2017-07-10T05:46:20.973Z,99.99
2017-07-10T05:46:49.119Z,99.99
2017-07-10T05:47:17.134Z,99.99
2017-07-10T05:47:45.053Z,99.99
2017-07-10T05:48:12.847Z,99.99
2017-07-10T05:48:40.977Z,99.99
2017-07-10T05:49:09.000Z,99.99
2017-07-10T05:49:37.122Z,99.99
2017-07-10T05:50:05.145Z,99.99
2017-07-10T05:50:33.283Z,99.99
2017-07-10T05:51:01.282Z,99.99
2017-07-10T05:51:29.553Z,99.99
2017-07-10T05:51:57.473Z,99.99
2017-07-10T05:52:25.414Z,99.99
2017-07-10T05:52:53.518Z,99.99
2017-07-10T05:53:21.561Z,99.99
2017-07-10T05:53:49.467Z,99.99
2017-07-10T05:54:17.412Z,99.99
2017-07-10T05:54:45.430Z,99.99
2017-07-10T05:55:13.554Z,99.99
2017-07-10T05:55:41.558Z,99.99
2017-07-10T05:56:09.480Z,99.99
2017-07-10T05:56:37.390Z,99.99
2017-07-10T05:57:05.491Z,99.99
2017-07-10T05:57:33.531Z,99.99
2017-07-10T05:58:01.543Z,99.99
2017-07-10T05:58:29.544Z,99.99
2017-07-10T05:58:57.480Z,99.99
2017-07-10T05:59:25.492Z,99.99
2017-07-10T05:59:53.527Z,99.99
2017-07-10T06:00:21.558Z,99.99
2017-07-10T06:00:49.584Z,99.99
2017-07-10T06:01:17.715Z,99.99
2017-07-10T06:01:45.701Z,99.99
2017-07-10T06:02:13.746Z,99.99